sensor_id;sensor_type;location;lat;lon;timestamp;temperature;humidity
50969;DHT22;36982;51.474;7.228;2023-03-01T00:01:58;0.00;1.00
50969;DHT22;36982;51.474;7.228;2023-03-01T00:04:24;0.00;1.00
50969;DHT22;36982;51.474;7.228;2023-03-01T00:06:49;0.00;1.00
50969;DHT22;36982;51.474;7.228;2023-03-01T00:09:15;-0.10;1.00
50969;DHT22;36982;51.474;7.228;2023-03-01T00:11:41;0.00;1.00
50969;DHT22;36982;51.474;7.228;2023-03-01T00:14:07;0.00;1.00
50969;DHT22;36982;51.474;7.228;2023-03-01T00:16:35;-0.10;1.00
50969;DHT22;36982;51.474;7.228;2023-03-01T00:19:03;-0.10;1.00
50969;DHT22;36982;51.474;7.228;2023-03-01T00:21:29;-0.10;1.00
50969;DHT22;36982;51.474;7.228;2023-03-01T00:23:55;-0.10;1.00
50969;DHT22;36982;51.474;7.228;2023-03-01T00:26:22;-0.10;1.00
50969;DHT22;36982;51.474;7.228;2023-03-01T00:28:48;-0.10;1.00
50969;DHT22;36982;51.474;7.228;2023-03-01T00:31:20;-0.20;1.00
50969;DHT22;36982;51.474;7.228;2023-03-01T00:33:46;-0.20;1.00
50969;DHT22;36982;51.474;7.228;2023-03-01T00:36:13;-0.20;1.00
50969;DHT22;36982;51.474;7.228;2023-03-01T00:38:42;-0.20;1.00
50969;DHT22;36982;51.474;7.228;2023-03-01T00:41:10;-0.20;1.00
50969;DHT22;36982;51.474;7.228;2023-03-01T00:43:36;-0.20;1.00
50969;DHT22;36982;51.474;7.228;2023-03-01T00:46:07;-0.20;1.00
50969;DHT22;36982;51.474;7.228;2023-03-01T00:48:33;-0.20;1.00
50969;DHT22;36982;51.474;7.228;2023-03-01T00:51:10;-0.20;1.00
50969;DHT22;36982;51.474;7.228;2023-03-01T00:53:36;-0.30;1.00
50969;DHT22;36982;51.474;7.228;2023-03-01T00:56:03;-0.20;1.00
50969;DHT22;36982;51.474;7.228;2023-03-01T00:58:29;-0.30;1.00
50969;DHT22;36982;51.474;7.228;2023-03-01T01:00:55;-0.30;1.00
50969;DHT22;36982;51.474;7.228;2023-03-01T01:03:21;-0.30;1.00
50969;DHT22;36982;51.474;7.228;2023-03-01T01:05:47;-0.20;1.00
50969;DHT22;36982;51.474;7.228;2023-03-01T01:08:13;-0.30;1.00
50969;DHT22;36982;51.474;7.228;2023-03-01T01:10:38;-0.40;1.00
50969;DHT22;36982;51.474;7.228;2023-03-01T01:13:04;-0.30;1.00
50969;DHT22;36982;51.474;7.228;2023-03-01T01:15:33;-0.30;1.00
50969;DHT22;36982;51.474;7.228;2023-03-01T01:17:59;-0.30;1.00
50969;DHT22;36982;51.474;7.228;2023-03-01T01:20:24;-0.20;1.00
50969;DHT22;36982;51.474;7.228;2023-03-01T01:22:50;-0.20;1.00
50969;DHT22;36982;51.474;7.228;2023-03-01T01:25:16;-0.20;1.00
50969;DHT22;36982;51.474;7.228;2023-03-01T01:27:42;-0.30;1.00
50969;DHT22;36982;51.474;7.228;2023-03-01T01:30:08;-0.30;1.00
50969;DHT22;36982;51.474;7.228;2023-03-01T01:32:33;-0.40;1.00
50969;DHT22;36982;51.474;7.228;2023-03-01T01:34:59;-0.50;1.00
50969;DHT22;36982;51.474;7.228;2023-03-01T01:37:25;-0.40;1.00
50969;DHT22;36982;51.474;7.228;2023-03-01T01:40:00;-0.50;1.00
50969;DHT22;36982;51.474;7.228;2023-03-01T01:42:27;-0.50;1.00
50969;DHT22;36982;51.474;7.228;2023-03-01T01:48:16;-0.60;1.00
50969;DHT22;36982;51.474;7.228;2023-03-01T01:50:44;-0.60;1.00
50969;DHT22;36982;51.474;7.228;2023-03-01T01:53:13;-0.60;1.00
50969;DHT22;36982;51.474;7.228;2023-03-01T01:55:45;-0.60;1.00
50969;DHT22;36982;51.474;7.228;2023-03-01T01:58:14;-0.70;1.00
50969;DHT22;36982;51.474;7.228;2023-03-01T02:00:40;-0.70;1.00
50969;DHT22;36982;51.474;7.228;2023-03-01T02:03:13;-0.70;1.00
50969;DHT22;36982;51.474;7.228;2023-03-01T02:08:12;-0.70;1.00
50969;DHT22;36982;51.474;7.228;2023-03-01T02:10:39;-0.70;1.00
50969;DHT22;36982;51.474;7.228;2023-03-01T02:13:06;-0.70;1.00
50969;DHT22;36982;51.474;7.228;2023-03-01T02:15:36;-0.70;1.00
50969;DHT22;36982;51.474;7.228;2023-03-01T02:18:04;-0.80;1.00
50969;DHT22;36982;51.474;7.228;2023-03-01T02:20:34;-0.80;1.00
50969;DHT22;36982;51.474;7.228;2023-03-01T02:23:01;-0.70;1.00
50969;DHT22;36982;51.474;7.228;2023-03-01T02:25:44;-0.80;1.00
50969;DHT22;36982;51.474;7.228;2023-03-01T02:30:44;-0.80;1.00
50969;DHT22;36982;51.474;7.228;2023-03-01T02:33:31;-0.80;1.00
50969;DHT22;36982;51.474;7.228;2023-03-01T02:35:59;-0.80;1.00
50969;DHT22;36982;51.474;7.228;2023-03-01T02:38:25;-0.80;1.00
50969;DHT22;36982;51.474;7.228;2023-03-01T02:40:52;-0.80;1.00
50969;DHT22;36982;51.474;7.228;2023-03-01T02:43:19;-0.80;1.00
50969;DHT22;36982;51.474;7.228;2023-03-01T02:45:51;-0.80;1.00
50969;DHT22;36982;51.474;7.228;2023-03-01T02:48:19;-0.80;1.00
50969;DHT22;36982;51.474;7.228;2023-03-01T02:53:53;-0.80;1.00
50969;DHT22;36982;51.474;7.228;2023-03-01T02:56:20;-0.90;1.00
50969;DHT22;36982;51.474;7.228;2023-03-01T02:58:46;-0.90;1.00
50969;DHT22;36982;51.474;7.228;2023-03-01T03:01:17;-1.00;1.00
50969;DHT22;36982;51.474;7.228;2023-03-01T03:03:43;-1.00;3.10
50969;DHT22;36982;51.474;7.228;2023-03-01T03:06:09;-1.00;9.90
50969;DHT22;36982;51.474;7.228;2023-03-01T03:08:34;-1.00;2.50
50969;DHT22;36982;51.474;7.228;2023-03-01T03:11:00;-1.00;6.20
50969;DHT22;36982;51.474;7.228;2023-03-01T03:13:26;-1.10;8.00
50969;DHT22;36982;51.474;7.228;2023-03-01T03:15:55;-1.10;7.80
50969;DHT22;36982;51.474;7.228;2023-03-01T03:18:21;-1.10;6.10
50969;DHT22;36982;51.474;7.228;2023-03-01T03:20:48;-1.20;11.50
50969;DHT22;36982;51.474;7.228;2023-03-01T03:23:19;-1.20;12.70
50969;DHT22;36982;51.474;7.228;2023-03-01T03:25:47;-1.20;12.10
50969;DHT22;36982;51.474;7.228;2023-03-01T03:28:13;-1.20;12.50
50969;DHT22;36982;51.474;7.228;2023-03-01T03:30:40;-1.30;13.30
50969;DHT22;36982;51.474;7.228;2023-03-01T03:33:06;-1.30;15.00
50969;DHT22;36982;51.474;7.228;2023-03-01T03:35:43;-1.20;17.60
50969;DHT22;36982;51.474;7.228;2023-03-01T03:38:11;-1.20;11.70
50969;DHT22;36982;51.474;7.228;2023-03-01T03:40:43;-1.20;11.80
50969;DHT22;36982;51.474;7.228;2023-03-01T03:43:12;-1.20;14.30
50969;DHT22;36982;51.474;7.228;2023-03-01T03:45:38;-1.30;9.10
50969;DHT22;36982;51.474;7.228;2023-03-01T03:48:06;-1.30;12.60
50969;DHT22;36982;51.474;7.228;2023-03-01T03:50:32;-1.30;14.20
50969;DHT22;36982;51.474;7.228;2023-03-01T03:53:00;-1.30;10.60
50969;DHT22;36982;51.474;7.228;2023-03-01T03:55:26;-1.20;10.70
50969;DHT22;36982;51.474;7.228;2023-03-01T03:57:57;-1.20;10.00
50969;DHT22;36982;51.474;7.228;2023-03-01T04:00:24;-1.20;9.30
50969;DHT22;36982;51.474;7.228;2023-03-01T04:02:50;-1.30;9.80
50969;DHT22;36982;51.474;7.228;2023-03-01T04:05:17;-1.20;12.50
50969;DHT22;36982;51.474;7.228;2023-03-01T04:07:44;-1.20;9.50
50969;DHT22;36982;51.474;7.228;2023-03-01T04:10:12;-1.10;8.30
50969;DHT22;36982;51.474;7.228;2023-03-01T04:12:38;-1.10;1.00
50969;DHT22;36982;51.474;7.228;2023-03-01T04:15:05;-1.10;1.70
50969;DHT22;36982;51.474;7.228;2023-03-01T04:17:46;-1.20;2.20
50969;DHT22;36982;51.474;7.228;2023-03-01T04:20:17;-1.30;9.70
50969;DHT22;36982;51.474;7.228;2023-03-01T04:22:44;-1.40;10.00
50969;DHT22;36982;51.474;7.228;2023-03-01T04:25:12;-1.40;15.80
50969;DHT22;36982;51.474;7.228;2023-03-01T04:27:39;-1.40;13.50
50969;DHT22;36982;51.474;7.228;2023-03-01T04:30:07;-1.40;11.30
50969;DHT22;36982;51.474;7.228;2023-03-01T04:32:33;-1.50;15.00
50969;DHT22;36982;51.474;7.228;2023-03-01T04:34:59;-1.40;15.20
50969;DHT22;36982;51.474;7.228;2023-03-01T04:37:25;-1.40;15.60
50969;DHT22;36982;51.474;7.228;2023-03-01T04:39:51;-1.40;17.90
50969;DHT22;36982;51.474;7.228;2023-03-01T04:42:17;-1.40;14.90
50969;DHT22;36982;51.474;7.228;2023-03-01T04:44:44;-1.40;13.50
50969;DHT22;36982;51.474;7.228;2023-03-01T04:47:10;-1.40;12.30
50969;DHT22;36982;51.474;7.228;2023-03-01T04:49:35;-1.40;12.80
50969;DHT22;36982;51.474;7.228;2023-03-01T04:52:01;-1.40;12.60
50969;DHT22;36982;51.474;7.228;2023-03-01T04:54:28;-1.50;14.70
50969;DHT22;36982;51.474;7.228;2023-03-01T04:56:54;-1.50;20.20
50969;DHT22;36982;51.474;7.228;2023-03-01T04:59:20;-1.50;18.90
50969;DHT22;36982;51.474;7.228;2023-03-01T05:01:50;-1.40;16.90
50969;DHT22;36982;51.474;7.228;2023-03-01T05:04:15;-1.50;18.00
50969;DHT22;36982;51.474;7.228;2023-03-01T05:06:41;-1.50;20.00
50969;DHT22;36982;51.474;7.228;2023-03-01T05:09:06;-1.50;22.30
50969;DHT22;36982;51.474;7.228;2023-03-01T05:11:32;-1.50;19.70
50969;DHT22;36982;51.474;7.228;2023-03-01T05:14:02;-1.60;22.40
50969;DHT22;36982;51.474;7.228;2023-03-01T05:16:28;-1.60;22.60
50969;DHT22;36982;51.474;7.228;2023-03-01T05:18:53;-1.70;23.80
50969;DHT22;36982;51.474;7.228;2023-03-01T05:21:21;-1.60;24.90
50969;DHT22;36982;51.474;7.228;2023-03-01T05:23:46;-1.60;26.10
50969;DHT22;36982;51.474;7.228;2023-03-01T05:26:13;-1.60;23.50
50969;DHT22;36982;51.474;7.228;2023-03-01T05:28:39;-1.60;22.50
50969;DHT22;36982;51.474;7.228;2023-03-01T05:31:05;-1.60;23.50
50969;DHT22;36982;51.474;7.228;2023-03-01T05:33:35;-1.60;26.60
50969;DHT22;36982;51.474;7.228;2023-03-01T05:36:01;-1.60;29.10
50969;DHT22;36982;51.474;7.228;2023-03-01T05:38:27;-1.60;27.00
50969;DHT22;36982;51.474;7.228;2023-03-01T05:40:52;-1.70;26.40
50969;DHT22;36982;51.474;7.228;2023-03-01T05:43:18;-1.80;29.30
50969;DHT22;36982;51.474;7.228;2023-03-01T05:45:43;-1.80;32.50
50969;DHT22;36982;51.474;7.228;2023-03-01T05:48:10;-1.70;34.20
50969;DHT22;36982;51.474;7.228;2023-03-01T05:50:43;-1.70;32.50
50969;DHT22;36982;51.474;7.228;2023-03-01T05:53:18;-1.70;32.60
50969;DHT22;36982;51.474;7.228;2023-03-01T05:55:46;-1.60;34.60
50969;DHT22;36982;51.474;7.228;2023-03-01T05:58:19;-1.70;34.20
50969;DHT22;36982;51.474;7.228;2023-03-01T06:00:46;-1.70;32.50
50969;DHT22;36982;51.474;7.228;2023-03-01T06:03:13;-1.70;38.90
50969;DHT22;36982;51.474;7.228;2023-03-01T06:05:40;-1.70;35.70
50969;DHT22;36982;51.474;7.228;2023-03-01T06:08:06;-1.70;32.80
50969;DHT22;36982;51.474;7.228;2023-03-01T06:10:32;-1.70;33.90
50969;DHT22;36982;51.474;7.228;2023-03-01T06:12:58;-1.70;28.90
50969;DHT22;36982;51.474;7.228;2023-03-01T06:15:25;-1.80;36.40
50969;DHT22;36982;51.474;7.228;2023-03-01T06:17:51;-1.70;36.40
50969;DHT22;36982;51.474;7.228;2023-03-01T06:20:19;-1.70;35.30
50969;DHT22;36982;51.474;7.228;2023-03-01T06:22:45;-1.60;33.40
50969;DHT22;36982;51.474;7.228;2023-03-01T06:25:14;-1.60;27.70
50969;DHT22;36982;51.474;7.228;2023-03-01T06:27:41;-1.60;30.00
50969;DHT22;36982;51.474;7.228;2023-03-01T06:30:08;-1.60;23.10
50969;DHT22;36982;51.474;7.228;2023-03-01T06:32:36;-1.60;30.60
50969;DHT22;36982;51.474;7.228;2023-03-01T06:35:02;-1.60;27.80
50969;DHT22;36982;51.474;7.228;2023-03-01T06:37:28;-1.60;27.20
50969;DHT22;36982;51.474;7.228;2023-03-01T06:39:53;-1.70;32.00
50969;DHT22;36982;51.474;7.228;2023-03-01T06:42:19;-1.70;33.70
50969;DHT22;36982;51.474;7.228;2023-03-01T06:44:44;-1.70;37.70
50969;DHT22;36982;51.474;7.228;2023-03-01T06:47:11;-1.70;36.50
50969;DHT22;36982;51.474;7.228;2023-03-01T06:49:36;-1.70;36.80
50969;DHT22;36982;51.474;7.228;2023-03-01T06:52:02;-1.70;34.10
50969;DHT22;36982;51.474;7.228;2023-03-01T06:54:28;-1.80;39.20
50969;DHT22;36982;51.474;7.228;2023-03-01T06:56:53;-1.70;36.40
50969;DHT22;36982;51.474;7.228;2023-03-01T06:59:19;-1.70;34.10
50969;DHT22;36982;51.474;7.228;2023-03-01T07:01:45;-1.70;38.30
50969;DHT22;36982;51.474;7.228;2023-03-01T07:04:11;-1.70;34.60
50969;DHT22;36982;51.474;7.228;2023-03-01T07:06:37;-1.80;41.60
50969;DHT22;36982;51.474;7.228;2023-03-01T07:09:03;-1.70;41.00
50969;DHT22;36982;51.474;7.228;2023-03-01T07:11:28;-1.60;45.30
50969;DHT22;36982;51.474;7.228;2023-03-01T07:13:54;-1.50;39.20
50969;DHT22;36982;51.474;7.228;2023-03-01T07:16:20;-1.40;29.50
50969;DHT22;36982;51.474;7.228;2023-03-01T07:18:46;-1.30;24.10
50969;DHT22;36982;51.474;7.228;2023-03-01T07:21:13;-1.50;26.60
50969;DHT22;36982;51.474;7.228;2023-03-01T07:23:39;-1.40;26.10
50969;DHT22;36982;51.474;7.228;2023-03-01T07:26:05;-1.30;19.60
50969;DHT22;36982;51.474;7.228;2023-03-01T07:28:30;-1.30;20.20
50969;DHT22;36982;51.474;7.228;2023-03-01T07:31:02;-1.30;19.90
50969;DHT22;36982;51.474;7.228;2023-03-01T07:33:28;-1.40;20.20
50969;DHT22;36982;51.474;7.228;2023-03-01T07:36:01;-1.30;23.10
50969;DHT22;36982;51.474;7.228;2023-03-01T07:38:28;-1.30;17.80
50969;DHT22;36982;51.474;7.228;2023-03-01T07:41:01;-1.40;20.00
50969;DHT22;36982;51.474;7.228;2023-03-01T07:43:28;-1.40;21.50
50969;DHT22;36982;51.474;7.228;2023-03-01T07:45:54;-1.30;20.00
50969;DHT22;36982;51.474;7.228;2023-03-01T07:48:19;-1.30;19.10
50969;DHT22;36982;51.474;7.228;2023-03-01T07:50:45;-1.30;25.20
50969;DHT22;36982;51.474;7.228;2023-03-01T07:53:10;-1.10;23.60
50969;DHT22;36982;51.474;7.228;2023-03-01T07:55:36;-1.00;15.10
50969;DHT22;36982;51.474;7.228;2023-03-01T07:58:02;-0.90;12.90
50969;DHT22;36982;51.474;7.228;2023-03-01T08:00:28;-0.90;8.90
50969;DHT22;36982;51.474;7.228;2023-03-01T08:02:54;-0.80;9.90
50969;DHT22;36982;51.474;7.228;2023-03-01T08:05:19;-0.80;1.80
50969;DHT22;36982;51.474;7.228;2023-03-01T08:07:47;-0.70;1.70
50969;DHT22;36982;51.474;7.228;2023-03-01T08:10:13;-0.70;1.00
50969;DHT22;36982;51.474;7.228;2023-03-01T08:12:39;-0.70;1.00
50969;DHT22;36982;51.474;7.228;2023-03-01T08:15:05;-0.70;1.00
50969;DHT22;36982;51.474;7.228;2023-03-01T08:17:31;-0.60;1.00
50969;DHT22;36982;51.474;7.228;2023-03-01T08:19:56;-0.50;1.00
50969;DHT22;36982;51.474;7.228;2023-03-01T08:22:22;-0.40;1.00
50969;DHT22;36982;51.474;7.228;2023-03-01T08:24:47;-0.30;1.00
50969;DHT22;36982;51.474;7.228;2023-03-01T08:27:15;-0.30;1.00
50969;DHT22;36982;51.474;7.228;2023-03-01T08:29:41;-0.20;1.00
50969;DHT22;36982;51.474;7.228;2023-03-01T08:32:06;-0.10;1.00
50969;DHT22;36982;51.474;7.228;2023-03-01T08:34:32;0.00;1.00
50969;DHT22;36982;51.474;7.228;2023-03-01T08:37:01;0.10;1.00
50969;DHT22;36982;51.474;7.228;2023-03-01T08:39:26;0.10;1.00
50969;DHT22;36982;51.474;7.228;2023-03-01T08:41:52;0.20;1.00
50969;DHT22;36982;51.474;7.228;2023-03-01T08:44:18;0.30;1.00
50969;DHT22;36982;51.474;7.228;2023-03-01T08:46:44;0.30;99.90
50969;DHT22;36982;51.474;7.228;2023-03-01T08:49:16;0.40;99.90
50969;DHT22;36982;51.474;7.228;2023-03-01T08:51:43;0.50;99.90
50969;DHT22;36982;51.474;7.228;2023-03-01T08:54:18;0.50;99.90
50969;DHT22;36982;51.474;7.228;2023-03-01T08:56:44;0.60;99.90
50969;DHT22;36982;51.474;7.228;2023-03-01T08:59:14;0.60;99.90
50969;DHT22;36982;51.474;7.228;2023-03-01T09:01:39;0.70;99.90
50969;DHT22;36982;51.474;7.228;2023-03-01T09:04:08;0.70;99.90
50969;DHT22;36982;51.474;7.228;2023-03-01T09:06:34;0.70;99.90
50969;DHT22;36982;51.474;7.228;2023-03-01T09:09:00;0.80;99.90
50969;DHT22;36982;51.474;7.228;2023-03-01T09:11:27;1.00;99.90
50969;DHT22;36982;51.474;7.228;2023-03-01T09:13:53;1.00;99.90
50969;DHT22;36982;51.474;7.228;2023-03-01T09:16:19;1.00;99.40
50969;DHT22;36982;51.474;7.228;2023-03-01T09:18:49;1.10;99.90
50969;DHT22;36982;51.474;7.228;2023-03-01T09:21:17;1.10;87.00
50969;DHT22;36982;51.474;7.228;2023-03-01T09:23:44;1.20;76.50
50969;DHT22;36982;51.474;7.228;2023-03-01T09:26:13;1.30;22.90
50969;DHT22;36982;51.474;7.228;2023-03-01T09:28:40;1.40;1.00
50969;DHT22;36982;51.474;7.228;2023-03-01T09:31:09;1.50;99.90
50969;DHT22;36982;51.474;7.228;2023-03-01T09:33:39;1.60;99.90
50969;DHT22;36982;51.474;7.228;2023-03-01T09:36:07;1.70;99.90
50969;DHT22;36982;51.474;7.228;2023-03-01T09:38:33;1.70;99.90
50969;DHT22;36982;51.474;7.228;2023-03-01T09:41:00;1.70;99.90
50969;DHT22;36982;51.474;7.228;2023-03-01T09:46:06;1.90;1.00
50969;DHT22;36982;51.474;7.228;2023-03-01T09:48:44;2.00;99.90
50969;DHT22;36982;51.474;7.228;2023-03-01T09:51:18;2.00;99.90
50969;DHT22;36982;51.474;7.228;2023-03-01T09:53:44;2.10;99.90
50969;DHT22;36982;51.474;7.228;2023-03-01T09:56:19;2.20;99.90
50969;DHT22;36982;51.474;7.228;2023-03-01T09:59:17;2.30;7.30
50969;DHT22;36982;51.474;7.228;2023-03-01T10:02:01;2.40;99.90
50969;DHT22;36982;51.474;7.228;2023-03-01T10:04:52;2.30;99.90
50969;DHT22;36982;51.474;7.228;2023-03-01T10:10:00;2.40;1.00
50969;DHT22;36982;51.474;7.228;2023-03-01T10:12:39;2.40;99.90
50969;DHT22;36982;51.474;7.228;2023-03-01T10:15:12;2.50;99.90
50969;DHT22;36982;51.474;7.228;2023-03-01T10:20:42;2.50;99.90
50969;DHT22;36982;51.474;7.228;2023-03-01T10:23:10;2.60;1.00
50969;DHT22;36982;51.474;7.228;2023-03-01T10:28:31;2.70;99.90
50969;DHT22;36982;51.474;7.228;2023-03-01T10:31:01;2.70;99.90
50969;DHT22;36982;51.474;7.228;2023-03-01T10:33:30;2.70;99.90
50969;DHT22;36982;51.474;7.228;2023-03-01T10:35:57;2.70;99.90
50969;DHT22;36982;51.474;7.228;2023-03-01T10:38:22;2.80;99.90
50969;DHT22;36982;51.474;7.228;2023-03-01T10:43:17;2.80;99.90
50969;DHT22;36982;51.474;7.228;2023-03-01T10:45:43;2.90;99.90
50969;DHT22;36982;51.474;7.228;2023-03-01T10:50:47;3.10;99.90
50969;DHT22;36982;51.474;7.228;2023-03-01T10:56:09;3.10;99.90
50969;DHT22;36982;51.474;7.228;2023-03-01T10:58:40;3.20;99.90
50969;DHT22;36982;51.474;7.228;2023-03-01T11:01:24;3.20;99.90
50969;DHT22;36982;51.474;7.228;2023-03-01T11:06:31;3.30;1.00
50969;DHT22;36982;51.474;7.228;2023-03-01T11:08:56;3.30;1.00
50969;DHT22;36982;51.474;7.228;2023-03-01T11:11:40;3.30;1.00
50969;DHT22;36982;51.474;7.228;2023-03-01T11:14:18;3.40;1.00
50969;DHT22;36982;51.474;7.228;2023-03-01T11:16:48;3.40;1.00
50969;DHT22;36982;51.474;7.228;2023-03-01T11:19:20;3.40;1.00
50969;DHT22;36982;51.474;7.228;2023-03-01T11:24:45;3.50;1.00
50969;DHT22;36982;51.474;7.228;2023-03-01T11:27:16;3.70;99.90
50969;DHT22;36982;51.474;7.228;2023-03-01T11:29:46;3.70;99.90
50969;DHT22;36982;51.474;7.228;2023-03-01T11:32:17;3.70;99.90
50969;DHT22;36982;51.474;7.228;2023-03-01T11:34:47;3.70;99.90
50969;DHT22;36982;51.474;7.228;2023-03-01T11:37:22;3.70;99.90
50969;DHT22;36982;51.474;7.228;2023-03-01T11:40:15;3.80;99.90
50969;DHT22;36982;51.474;7.228;2023-03-01T11:45:24;3.80;1.00
50969;DHT22;36982;51.474;7.228;2023-03-01T11:50:58;3.80;1.00
50969;DHT22;36982;51.474;7.228;2023-03-01T11:53:35;3.90;1.00
50969;DHT22;36982;51.474;7.228;2023-03-01T11:56:25;3.90;99.90
50969;DHT22;36982;51.474;7.228;2023-03-01T11:59:19;3.90;1.00
50969;DHT22;36982;51.474;7.228;2023-03-01T12:10:29;4.20;99.90
50969;DHT22;36982;51.474;7.228;2023-03-01T12:29:36;4.40;99.90
50969;DHT22;36982;51.474;7.228;2023-03-01T12:38:22;4.60;99.90
50969;DHT22;36982;51.474;7.228;2023-03-01T12:50:49;4.80;99.90
50969;DHT22;36982;51.474;7.228;2023-03-01T12:53:31;4.70;99.90
50969;DHT22;36982;51.474;7.228;2023-03-01T12:56:05;4.80;97.30
50969;DHT22;36982;51.474;7.228;2023-03-01T13:01:46;4.80;83.00
50969;DHT22;36982;51.474;7.228;2023-03-01T13:17:58;4.90;1.00
50969;DHT22;36982;51.474;7.228;2023-03-01T13:20:29;5.00;99.90
50969;DHT22;36982;51.474;7.228;2023-03-01T13:25:34;5.10;99.90
50969;DHT22;36982;51.474;7.228;2023-03-01T13:31:02;5.20;14.70
50969;DHT22;36982;51.474;7.228;2023-03-01T13:35:54;5.20;1.00
50969;DHT22;36982;51.474;7.228;2023-03-01T13:38:46;5.30;1.00
50969;DHT22;36982;51.474;7.228;2023-03-01T13:41:14;5.40;1.00
50969;DHT22;36982;51.474;7.228;2023-03-01T13:43:42;5.30;1.00
50969;DHT22;36982;51.474;7.228;2023-03-01T13:46:20;5.30;1.00
50969;DHT22;36982;51.474;7.228;2023-03-01T13:48:50;5.40;1.00
50969;DHT22;36982;51.474;7.228;2023-03-01T13:51:25;5.50;1.00
50969;DHT22;36982;51.474;7.228;2023-03-01T13:53:51;5.50;1.00
50969;DHT22;36982;51.474;7.228;2023-03-01T13:56:22;5.50;1.00
50969;DHT22;36982;51.474;7.228;2023-03-01T13:58:53;5.50;1.00
50969;DHT22;36982;51.474;7.228;2023-03-01T14:01:34;5.50;99.90
50969;DHT22;36982;51.474;7.228;2023-03-01T14:04:01;5.60;1.00
50969;DHT22;36982;51.474;7.228;2023-03-01T14:06:32;5.70;1.00
50969;DHT22;36982;51.474;7.228;2023-03-01T14:09:20;5.80;99.90
50969;DHT22;36982;51.474;7.228;2023-03-01T14:14:36;5.70;99.90
50969;DHT22;36982;51.474;7.228;2023-03-01T14:19:56;5.70;99.90
50969;DHT22;36982;51.474;7.228;2023-03-01T14:22:26;5.70;99.90
50969;DHT22;36982;51.474;7.228;2023-03-01T14:24:58;5.70;99.90
50969;DHT22;36982;51.474;7.228;2023-03-01T14:27:37;5.70;99.90
50969;DHT22;36982;51.474;7.228;2023-03-01T14:30:13;5.70;99.90
50969;DHT22;36982;51.474;7.228;2023-03-01T14:32:40;5.70;99.90
50969;DHT22;36982;51.474;7.228;2023-03-01T14:37:51;5.80;99.90
50969;DHT22;36982;51.474;7.228;2023-03-01T14:40:24;5.80;99.90
50969;DHT22;36982;51.474;7.228;2023-03-01T14:42:50;5.70;99.90
50969;DHT22;36982;51.474;7.228;2023-03-01T14:45:16;5.70;99.90
50969;DHT22;36982;51.474;7.228;2023-03-01T14:47:44;5.80;99.90
50969;DHT22;36982;51.474;7.228;2023-03-01T14:52:46;5.90;99.90
50969;DHT22;36982;51.474;7.228;2023-03-01T14:55:21;5.90;99.90
50969;DHT22;36982;51.474;7.228;2023-03-01T14:57:49;5.90;99.90
50969;DHT22;36982;51.474;7.228;2023-03-01T15:00:24;5.90;99.90
50969;DHT22;36982;51.474;7.228;2023-03-01T15:02:51;5.90;99.90
50969;DHT22;36982;51.474;7.228;2023-03-01T15:05:24;6.00;99.90
50969;DHT22;36982;51.474;7.228;2023-03-01T15:07:51;6.00;99.90
50969;DHT22;36982;51.474;7.228;2023-03-01T15:10:30;6.00;99.90
50969;DHT22;36982;51.474;7.228;2023-03-01T15:13:13;6.00;99.90
50969;DHT22;36982;51.474;7.228;2023-03-01T15:15:41;6.10;99.90
50969;DHT22;36982;51.474;7.228;2023-03-01T15:18:25;6.10;99.90
50969;DHT22;36982;51.474;7.228;2023-03-01T15:20:52;6.00;99.90
50969;DHT22;36982;51.474;7.228;2023-03-01T15:25:46;5.90;99.90
50969;DHT22;36982;51.474;7.228;2023-03-01T15:28:19;5.90;99.90
50969;DHT22;36982;51.474;7.228;2023-03-01T15:30:46;6.00;99.90
50969;DHT22;36982;51.474;7.228;2023-03-01T15:33:30;6.00;99.90
50969;DHT22;36982;51.474;7.228;2023-03-01T15:36:02;6.00;99.90
50969;DHT22;36982;51.474;7.228;2023-03-01T15:38:36;6.00;99.90
50969;DHT22;36982;51.474;7.228;2023-03-01T15:41:31;5.90;99.90
50969;DHT22;36982;51.474;7.228;2023-03-01T15:44:14;5.90;99.90
50969;DHT22;36982;51.474;7.228;2023-03-01T15:46:39;5.90;99.90
50969;DHT22;36982;51.474;7.228;2023-03-01T15:52:03;5.80;99.90
50969;DHT22;36982;51.474;7.228;2023-03-01T15:54:29;5.90;99.90
50969;DHT22;36982;51.474;7.228;2023-03-01T15:56:55;5.80;99.90
50969;DHT22;36982;51.474;7.228;2023-03-01T15:59:21;5.70;99.90
50969;DHT22;36982;51.474;7.228;2023-03-01T16:01:48;5.90;99.90
50969;DHT22;36982;51.474;7.228;2023-03-01T16:04:16;5.90;99.90
50969;DHT22;36982;51.474;7.228;2023-03-01T16:06:54;5.90;99.90
50969;DHT22;36982;51.474;7.228;2023-03-01T16:09:25;5.80;93.10
50969;DHT22;36982;51.474;7.228;2023-03-01T16:11:51;5.90;77.70
50969;DHT22;36982;51.474;7.228;2023-03-01T16:14:17;5.80;67.00
50969;DHT22;36982;51.474;7.228;2023-03-01T16:16:44;5.70;65.70
50969;DHT22;36982;51.474;7.228;2023-03-01T16:19:09;5.70;66.50
50969;DHT22;36982;51.474;7.228;2023-03-01T16:21:35;5.70;66.50
50969;DHT22;36982;51.474;7.228;2023-03-01T16:24:01;5.70;62.20
50969;DHT22;36982;51.474;7.228;2023-03-01T16:26:27;5.70;68.30
50969;DHT22;36982;51.474;7.228;2023-03-01T16:28:55;5.70;66.10
50969;DHT22;36982;51.474;7.228;2023-03-01T16:31:21;5.60;73.90
50969;DHT22;36982;51.474;7.228;2023-03-01T16:33:47;5.50;74.70
50969;DHT22;36982;51.474;7.228;2023-03-01T16:36:16;5.50;69.20
50969;DHT22;36982;51.474;7.228;2023-03-01T16:38:42;5.50;58.70
50969;DHT22;36982;51.474;7.228;2023-03-01T16:41:13;5.70;54.30
50969;DHT22;36982;51.474;7.228;2023-03-01T16:43:39;5.50;41.50
50969;DHT22;36982;51.474;7.228;2023-03-01T16:46:38;5.40;44.30
50969;DHT22;36982;51.474;7.228;2023-03-01T16:49:06;5.40;36.80
50969;DHT22;36982;51.474;7.228;2023-03-01T16:51:32;5.40;21.80
50969;DHT22;36982;51.474;7.228;2023-03-01T16:54:00;5.40;17.40
50969;DHT22;36982;51.474;7.228;2023-03-01T16:56:25;5.40;22.40
50969;DHT22;36982;51.474;7.228;2023-03-01T16:58:51;5.30;22.30
50969;DHT22;36982;51.474;7.228;2023-03-01T17:01:19;5.20;25.70
50969;DHT22;36982;51.474;7.228;2023-03-01T17:03:46;5.20;29.10
50969;DHT22;36982;51.474;7.228;2023-03-01T17:06:15;5.20;36.20
50969;DHT22;36982;51.474;7.228;2023-03-01T17:08:41;5.10;38.10
50969;DHT22;36982;51.474;7.228;2023-03-01T17:11:09;5.10;38.90
50969;DHT22;36982;51.474;7.228;2023-03-01T17:13:36;5.00;41.80
50969;DHT22;36982;51.474;7.228;2023-03-01T17:16:07;5.00;41.10
50969;DHT22;36982;51.474;7.228;2023-03-01T17:18:33;4.90;48.00
50969;DHT22;36982;51.474;7.228;2023-03-01T17:20:58;4.90;48.40
50969;DHT22;36982;51.474;7.228;2023-03-01T17:23:25;4.80;52.90
50969;DHT22;36982;51.474;7.228;2023-03-01T17:25:51;4.80;56.90
50969;DHT22;36982;51.474;7.228;2023-03-01T17:28:18;4.80;59.30
50969;DHT22;36982;51.474;7.228;2023-03-01T17:30:44;4.80;59.80
50969;DHT22;36982;51.474;7.228;2023-03-01T17:33:12;4.70;60.00
50969;DHT22;36982;51.474;7.228;2023-03-01T17:35:38;4.70;66.20
50969;DHT22;36982;51.474;7.228;2023-03-01T17:38:04;4.60;67.80
50969;DHT22;36982;51.474;7.228;2023-03-01T17:40:30;4.60;66.30
50969;DHT22;36982;51.474;7.228;2023-03-01T17:42:57;4.60;69.90
50969;DHT22;36982;51.474;7.228;2023-03-01T17:45:22;4.50;75.30
50969;DHT22;36982;51.474;7.228;2023-03-01T17:47:48;4.40;76.90
50969;DHT22;36982;51.474;7.228;2023-03-01T17:50:13;4.40;79.80
50969;DHT22;36982;51.474;7.228;2023-03-01T17:52:39;4.40;79.60
50969;DHT22;36982;51.474;7.228;2023-03-01T17:55:06;4.40;80.10
50969;DHT22;36982;51.474;7.228;2023-03-01T17:57:32;4.40;76.60